CST,Max TemperatureF,Mean TemperatureF,Min TemperatureF,Max Dew PointF,MeanDew PointF,Min DewpointF,Max Humidity, Mean Humidity, Min Humidity, Max Sea Level PressureIn, Mean Sea Level PressureIn, Min Sea Level PressureIn, Max VisibilityMiles, Mean VisibilityMiles, Min VisibilityMiles, Max Wind SpeedMPH, Mean Wind SpeedMPH, Max Gust SpeedMPH,PrecipitationIn, CloudCover, Events, WindDirDegrees
2014-5-1,98,86,74,75,72,68,89,60,35,29.87,29.80,29.73,12,8,6,14,7,23,0.00,7,,243
2014-5-2,98,86,74,74,71,64,94,71,30,29.88,29.80,29.73,12,7,1,15,5,,1.46,6,Rain-Thunderstorm,249
2014-5-3,97,84,70,73,67,59,83,53,30,29.92,29.86,29.79,12,8,6,8,5,,0.00,6,,205
2014-5-4,99,86,74,72,66,61,83,46,20,29.94,29.86,29.78,12,9,6,15,8,26,0.00,6,,58
2014-5-5,98,86,73,72,67,62,89,47,24,29.93,29.83,29.74,12,8,6,18,7,,0.00,7,,77
2014-5-6,99,84,70,73,67,62,83,50,24,29.88,29.82,29.75,12,8,6,12,7,,0.00,4,,130
2014-5-7,94,84,73,77,72,69,94,67,36,29.94,29.87,29.81,12,7,2,14,6,,0.08,6,Rain-Thunderstorm,187
2014-5-8,93,83,73,75,73,70,100,71,41,29.96,29.90,29.85,12,7,6,12,5,,0.08,6,Rain,199
2014-5-9,93,83,73,75,73,70,100,72,38,29.94,29.88,29.80,12,7,3,16,6,,0.00,6,Rain-Thunderstorm,208
2014-5-10,91,82,73,76,74,73,100,80,48,29.95,29.88,29.82,12,7,2,16,7,,0.16,6,Rain-Thunderstorm,129
2014-5-11,92,82,72,75,71,68,96,65,45,29.91,29.82,29.74,12,8,6,10,5,,0.00,6,,229
2014-5-12,93,82,72,75,71,66,94,62,35,29.84,29.79,29.72,12,8,6,13,6,,0.00,3,,285
2014-5-13,94,83,72,72,68,64,73,52,31,29.83,29.76,29.69,12,8,6,13,5,,0.00,4,,339
2014-5-14,93,82,72,70,65,59,88,50,25,29.89,29.81,29.73,12,12,12,13,5,,0.00,8,,111
2014-5-15,95,84,73,70,67,64,78,50,29,29.88,29.84,29.78,12,8,6,13,7,,0.00,6,,75
2014-5-16,94,84,74,70,69,67,83,52,35,29.87,29.81,29.75,12,8,6,24,11,34,0.00,5,,68
2014-5-17,93,86,78,68,67,64,65,48,33,29.86,29.80,29.74,12,9,6,36,10,,0.00,7,,66
2014-5-18,96,84,71,72,66,63,83,48,26,29.85,29.80,29.75,12,8,6,18,8,,0.00,5,,57
2014-5-19,96,83,70,70,65,62,88,43,25,29.88,29.82,29.76,12,9,6,16,7,,0.00,7,,58
2014-5-20,96,81,66,66,64,62,83,44,23,29.93,29.84,29.76,12,8,6,14,7,,0.00,7,,67
2014-5-21,97,84,71,70,68,65,78,53,28,29.88,29.83,29.78,12,8,6,14,6,,0.00,3,,214
2014-5-22,94,83,72,73,70,66,89,62,40,29.91,29.83,29.76,12,8,6,16,5,,0.63,5,Rain-Thunderstorm,250
2014-5-23,93,83,73,73,69,64,89,57,37,29.90,29.84,29.77,12,8,6,18,7,,0.00,4,,66
2014-5-24,93,82,72,70,68,66,83,55,37,29.89,29.84,29.78,12,8,6,21,9,,0.00,4,,81
2014-5-25,91,80,69,72,70,68,83,61,42,29.90,29.85,29.79,12,8,6,15,5,,0.00,6,,112
2014-5-26,95,84,73,72,68,64,85,52,29,29.96,29.86,29.79,12,8,6,18,7,,0.00,5,,75
2014-5-27,94,84,74,75,68,66,100,54,35,29.90,29.84,29.77,12,8,6,21,11,28,0.00,3,,62
2014-5-28,95,84,73,73,69,66,83,52,32,29.90,29.82,29.75,12,8,6,14,8,,0.00,6,,110
2014-5-29,94,84,75,73,71,68,83,59,35,29.90,29.83,29.75,12,8,6,14,6,,0.00,6,Rain,200
2014-5-30,91,82,74,76,73,70,94,74,45,29.87,29.82,29.77,12,8,6,15,6,,0.08,6,Rain-Thunderstorm,221
2014-5-31,91,81,71,76,73,70,100,81,54,29.89,29.81,29.74,12,6,0,17,6,,1.65,6,Rain-Thunderstorm,210